This is the latest recevied weather packets stored in our database for station/object KH6DH-13. If no packets are shown the sender has not sent any weather packets the latest 10 day(s).
| Time | Temp. | Humidity | Pressure | Rain* | Wind** | Luminosity | Snow |
|---|---|---|---|---|---|---|---|
| 1777915592 | 22.78° C | - | - | 0 mm | 1.79 m/s, 39° | - | - |
| 1777914991 | 22.78° C | - | - | 0 mm | 1.79 m/s, 56° | - | - |
| 1777914390 | 22.22° C | - | - | 0 mm | 1.79 m/s, 63° | - | - |
| 1777913789 | 22.78° C | - | - | 0 mm | 0.45 m/s, 37° | - | - |
| 1777913188 | 22.78° C | - | - | 0 mm | 0.89 m/s, 48° | - | - |
| 1777912587 | 22.22° C | - | - | 0 mm | 0.89 m/s, 20° | - | - |
| 1777911986 | 22.22° C | - | - | 0 mm | 0.45 m/s, 259° | - | - |
| 1777911385 | 22.22° C | - | - | 0 mm | 1.79 m/s, 21° | - | - |
| 1777910784 | 22.22° C | - | - | 0 mm | 0.45 m/s, 319° | - | - |
| 1777910183 | 22.22° C | - | - | 0 mm | 0 m/s | - | - |
| 1777909582 | 22.22° C | - | - | 0 mm | 1.34 m/s, 96° | - | - |
| 1777908981 | 22.78° C | - | - | 0 mm | 0 m/s | - | - |
| 1777908380 | 22.22° C | - | - | 0 mm | 1.79 m/s, 229° | - | - |
| 1777907779 | 22.22° C | - | - | 0 mm | 0 m/s | - | - |
| 1777907178 | 22.22° C | - | - | 0 mm | 1.34 m/s, 76° | - | - |
| 1777906577 | 22.78° C | - | - | 0 mm | 0 m/s | - | - |
| 1777905976 | 22.78° C | - | - | 0 mm | 0.45 m/s, 94° | - | - |
| 1777905375 | 22.22° C | - | - | 0 mm | 1.79 m/s, 58° | - | - |
| 1777904774 | 22.22° C | - | - | 0 mm | 0 m/s | - | - |
| 1777904173 | 22.22° C | - | - | 0 mm | 0.89 m/s, 76° | - | - |
| 1777903572 | 22.22° C | - | - | 0 mm | 0.45 m/s, 135° | - | - |
| 1777902971 | 22.22° C | - | - | 0 mm | 0 m/s | - | - |
| 1777902370 | 22.22° C | - | - | 0 mm | 0.45 m/s, 322° | - | - |
| 1777901769 | 22.22° C | - | - | 0 mm | 0.89 m/s, 58° | - | - |
| 1777901168 | 22.22° C | - | - | 0 mm | 0 m/s | - | - |
* Rain latest hour (hover to see other rain measurements)
** Current wind speed in m/s (hover to see current wind gust speed)